sensor_id;sensor_type;location;lat;lon;timestamp;pressure;altitude;pressure_sealevel;temperature;humidity
70437;BME280;57877;39.750;-104.894;2023-12-04T00:00:45;83453.99;;;3.67;24.28
70437;BME280;57877;39.750;-104.894;2023-12-04T00:03:10;83458.69;;;4.17;24.03
70437;BME280;57877;39.750;-104.894;2023-12-04T00:05:35;83454.27;;;3.48;24.47
70437;BME280;57877;39.750;-104.894;2023-12-04T00:08:00;83459.35;;;4.05;24.72
70437;BME280;57877;39.750;-104.894;2023-12-04T00:10:26;83462.87;;;3.53;26.31
70437;BME280;57877;39.750;-104.894;2023-12-04T00:12:51;83463.41;;;3.31;25.00
70437;BME280;57877;39.750;-104.894;2023-12-04T00:15:18;83467.21;;;3.51;26.19
70437;BME280;57877;39.750;-104.894;2023-12-04T00:17:41;83473.09;;;4.01;25.22
70437;BME280;57877;39.750;-104.894;2023-12-04T00:20:07;83475.75;;;3.49;25.88
70437;BME280;57877;39.750;-104.894;2023-12-04T00:22:31;83478.66;;;3.74;25.50
70437;BME280;57877;39.750;-104.894;2023-12-04T00:24:56;83481.18;;;4.03;25.99
70437;BME280;57877;39.750;-104.894;2023-12-04T00:27:21;83479.95;;;3.52;25.54
70437;BME280;57877;39.750;-104.894;2023-12-04T00:29:46;83483.10;;;3.84;24.99
70437;BME280;57877;39.750;-104.894;2023-12-04T00:32:11;83478.46;;;3.92;25.71
70437;BME280;57877;39.750;-104.894;2023-12-04T00:34:37;83487.96;;;2.41;28.67
70437;BME280;57877;39.750;-104.894;2023-12-04T00:37:02;83481.45;;;2.52;27.04
70437;BME280;57877;39.750;-104.894;2023-12-04T00:39:27;83483.46;;;2.60;27.33
70437;BME280;57877;39.750;-104.894;2023-12-04T00:41:52;83481.35;;;3.20;25.64
70437;BME280;57877;39.750;-104.894;2023-12-04T00:44:17;83482.64;;;2.83;26.74
70437;BME280;57877;39.750;-104.894;2023-12-04T00:46:42;83487.93;;;2.89;27.54
70437;BME280;57877;39.750;-104.894;2023-12-04T00:49:07;83484.43;;;2.35;26.79
70437;BME280;57877;39.750;-104.894;2023-12-04T00:51:38;83481.38;;;2.52;28.26
70437;BME280;57877;39.750;-104.894;2023-12-04T00:53:57;83488.88;;;2.27;27.91
70437;BME280;57877;39.750;-104.894;2023-12-04T00:56:22;83488.81;;;2.78;26.60
70437;BME280;57877;39.750;-104.894;2023-12-04T00:58:47;83486.65;;;2.47;28.03
70437;BME280;57877;39.750;-104.894;2023-12-04T01:01:12;83487.55;;;2.77;26.47
70437;BME280;57877;39.750;-104.894;2023-12-04T01:03:38;83487.50;;;2.87;25.32
70437;BME280;57877;39.750;-104.894;2023-12-04T01:06:02;83491.41;;;3.11;24.42
70437;BME280;57877;39.750;-104.894;2023-12-04T01:08:27;83497.01;;;2.35;25.31
70437;BME280;57877;39.750;-104.894;2023-12-04T01:10:53;83493.65;;;2.32;25.26
70437;BME280;57877;39.750;-104.894;2023-12-04T01:13:18;83481.24;;;2.33;26.12
70437;BME280;57877;39.750;-104.894;2023-12-04T01:15:43;83483.04;;;2.28;25.05
70437;BME280;57877;39.750;-104.894;2023-12-04T01:18:09;83492.87;;;3.01;24.50
70437;BME280;57877;39.750;-104.894;2023-12-04T01:20:34;83487.12;;;2.85;24.78
70437;BME280;57877;39.750;-104.894;2023-12-04T01:22:59;83490.16;;;2.26;25.16
70437;BME280;57877;39.750;-104.894;2023-12-04T01:25:24;83484.64;;;2.60;24.36
70437;BME280;57877;39.750;-104.894;2023-12-04T01:27:49;83484.16;;;2.34;24.58
70437;BME280;57877;39.750;-104.894;2023-12-04T01:30:15;83483.23;;;2.49;24.36
70437;BME280;57877;39.750;-104.894;2023-12-04T01:32:41;83496.24;;;2.39;24.01
70437;BME280;57877;39.750;-104.894;2023-12-04T01:35:07;83497.95;;;2.75;23.53
70437;BME280;57877;39.750;-104.894;2023-12-04T01:37:31;83499.38;;;3.01;23.26
70437;BME280;57877;39.750;-104.894;2023-12-04T01:39:56;83493.88;;;2.95;23.80
70437;BME280;57877;39.750;-104.894;2023-12-04T01:42:21;83487.50;;;1.91;24.67
70437;BME280;57877;39.750;-104.894;2023-12-04T01:44:46;83493.88;;;1.80;25.57
70437;BME280;57877;39.750;-104.894;2023-12-04T01:47:12;83502.08;;;2.22;25.67
70437;BME280;57877;39.750;-104.894;2023-12-04T01:49:37;83504.39;;;2.80;25.44
70437;BME280;57877;39.750;-104.894;2023-12-04T01:52:02;83513.45;;;1.86;26.26
70437;BME280;57877;39.750;-104.894;2023-12-04T01:54:26;83495.87;;;2.39;26.32
70437;BME280;57877;39.750;-104.894;2023-12-04T01:56:52;83496.45;;;1.74;26.93
70437;BME280;57877;39.750;-104.894;2023-12-04T01:59:17;83510.06;;;1.95;26.57
70437;BME280;57877;39.750;-104.894;2023-12-04T02:01:42;83510.15;;;2.13;26.41
70437;BME280;57877;39.750;-104.894;2023-12-04T02:04:07;83511.20;;;2.26;26.31
70437;BME280;57877;39.750;-104.894;2023-12-04T02:06:32;83492.55;;;1.98;26.68
70437;BME280;57877;39.750;-104.894;2023-12-04T02:08:57;83499.17;;;2.14;27.11
70437;BME280;57877;39.750;-104.894;2023-12-04T02:11:22;83474.52;;;1.57;28.14
70437;BME280;57877;39.750;-104.894;2023-12-04T02:13:47;83500.05;;;1.46;28.39
70437;BME280;57877;39.750;-104.894;2023-12-04T02:16:15;83531.72;;;1.56;28.71
70437;BME280;57877;39.750;-104.894;2023-12-04T02:18:38;83509.89;;;0.92;29.18
70437;BME280;57877;39.750;-104.894;2023-12-04T02:21:02;83484.44;;;0.66;30.18
70437;BME280;57877;39.750;-104.894;2023-12-04T02:23:27;83478.02;;;0.59;30.32
70437;BME280;57877;39.750;-104.894;2023-12-04T02:25:55;83488.84;;;-0.27;31.76
70437;BME280;57877;39.750;-104.894;2023-12-04T02:28:18;83502.81;;;0.88;30.08
70437;BME280;57877;39.750;-104.894;2023-12-04T02:30:44;83506.95;;;1.37;29.54
70437;BME280;57877;39.750;-104.894;2023-12-04T02:33:08;83488.55;;;-0.08;31.32
70437;BME280;57877;39.750;-104.894;2023-12-04T02:35:34;83481.51;;;0.42;31.67
70437;BME280;57877;39.750;-104.894;2023-12-04T02:37:58;83494.26;;;0.97;31.19
70437;BME280;57877;39.750;-104.894;2023-12-04T02:40:23;83491.32;;;1.05;30.66
70437;BME280;57877;39.750;-104.894;2023-12-04T02:42:48;83473.11;;;1.17;30.95
70437;BME280;57877;39.750;-104.894;2023-12-04T02:45:13;83470.33;;;0.99;31.40
70437;BME280;57877;39.750;-104.894;2023-12-04T02:47:38;83482.54;;;1.51;30.88
70437;BME280;57877;39.750;-104.894;2023-12-04T02:50:04;83505.53;;;1.85;30.40
70437;BME280;57877;39.750;-104.894;2023-12-04T02:52:28;83477.51;;;1.31;31.06
70437;BME280;57877;39.750;-104.894;2023-12-04T02:54:53;83485.94;;;0.50;32.75
70437;BME280;57877;39.750;-104.894;2023-12-04T02:57:19;83475.64;;;-0.09;33.84
70437;BME280;57877;39.750;-104.894;2023-12-04T02:59:44;83483.85;;;0.49;33.86
70437;BME280;57877;39.750;-104.894;2023-12-04T03:02:09;83482.41;;;0.26;34.87
70437;BME280;57877;39.750;-104.894;2023-12-04T03:04:35;83476.43;;;0.12;34.75
70437;BME280;57877;39.750;-104.894;2023-12-04T03:06:59;83480.05;;;1.05;33.48
70437;BME280;57877;39.750;-104.894;2023-12-04T03:09:24;83473.24;;;1.75;32.09
70437;BME280;57877;39.750;-104.894;2023-12-04T03:11:49;83481.97;;;1.35;31.77
70437;BME280;57877;39.750;-104.894;2023-12-04T03:14:14;83481.15;;;2.05;31.01
70437;BME280;57877;39.750;-104.894;2023-12-04T03:16:39;83477.44;;;2.25;30.77
70437;BME280;57877;39.750;-104.894;2023-12-04T03:19:04;83464.78;;;2.00;31.13
70437;BME280;57877;39.750;-104.894;2023-12-04T03:21:29;83459.38;;;1.80;31.37
70437;BME280;57877;39.750;-104.894;2023-12-04T03:23:54;83473.77;;;1.48;31.47
70437;BME280;57877;39.750;-104.894;2023-12-04T03:26:20;83471.76;;;1.78;31.37
70437;BME280;57877;39.750;-104.894;2023-12-04T03:28:45;83476.79;;;2.27;30.82
70437;BME280;57877;39.750;-104.894;2023-12-04T03:31:10;83474.85;;;2.48;30.42
70437;BME280;57877;39.750;-104.894;2023-12-04T03:33:35;83468.88;;;1.20;31.59
70437;BME280;57877;39.750;-104.894;2023-12-04T03:36:00;83459.50;;;1.12;32.41
70437;BME280;57877;39.750;-104.894;2023-12-04T03:38:25;83458.44;;;0.63;33.01
70437;BME280;57877;39.750;-104.894;2023-12-04T03:40:50;83461.21;;;0.98;32.33
70437;BME280;57877;39.750;-104.894;2023-12-04T03:43:15;83453.63;;;0.50;32.81
70437;BME280;57877;39.750;-104.894;2023-12-04T03:45:40;83459.69;;;0.88;32.68
70437;BME280;57877;39.750;-104.894;2023-12-04T03:48:05;83459.50;;;0.83;32.62
70437;BME280;57877;39.750;-104.894;2023-12-04T03:50:30;83463.50;;;-0.27;34.68
70437;BME280;57877;39.750;-104.894;2023-12-04T03:52:55;83458.62;;;0.40;34.06
70437;BME280;57877;39.750;-104.894;2023-12-04T03:55:20;83455.60;;;0.56;33.13
70437;BME280;57877;39.750;-104.894;2023-12-04T03:57:45;83472.16;;;1.12;32.41
70437;BME280;57877;39.750;-104.894;2023-12-04T04:00:11;83465.24;;;1.33;31.91
70437;BME280;57877;39.750;-104.894;2023-12-04T04:02:36;83467.49;;;1.61;31.67
70437;BME280;57877;39.750;-104.894;2023-12-04T04:05:01;83476.09;;;0.85;32.39
70437;BME280;57877;39.750;-104.894;2023-12-04T04:07:26;83475.72;;;0.68;32.64
70437;BME280;57877;39.750;-104.894;2023-12-04T04:09:51;83473.79;;;1.80;31.53
70437;BME280;57877;39.750;-104.894;2023-12-04T04:12:16;83477.98;;;2.08;31.10
70437;BME280;57877;39.750;-104.894;2023-12-04T04:14:41;83466.43;;;1.16;32.19
70437;BME280;57877;39.750;-104.894;2023-12-04T04:17:06;83460.32;;;1.46;31.68
70437;BME280;57877;39.750;-104.894;2023-12-04T04:19:31;83457.17;;;1.90;31.62
70437;BME280;57877;39.750;-104.894;2023-12-04T04:21:56;83457.51;;;2.02;31.27
70437;BME280;57877;39.750;-104.894;2023-12-04T04:24:21;83451.25;;;2.06;31.00
70437;BME280;57877;39.750;-104.894;2023-12-04T04:26:46;83455.49;;;2.05;31.04
70437;BME280;57877;39.750;-104.894;2023-12-04T04:29:11;83448.03;;;1.44;31.63
70437;BME280;57877;39.750;-104.894;2023-12-04T04:31:36;83446.61;;;1.52;31.65
70437;BME280;57877;39.750;-104.894;2023-12-04T04:34:01;83450.47;;;1.12;32.71
70437;BME280;57877;39.750;-104.894;2023-12-04T04:36:27;83446.70;;;0.92;33.11
70437;BME280;57877;39.750;-104.894;2023-12-04T04:38:52;83439.94;;;0.90;33.47
70437;BME280;57877;39.750;-104.894;2023-12-04T04:41:17;83439.90;;;0.71;34.07
70437;BME280;57877;39.750;-104.894;2023-12-04T04:43:42;83445.69;;;0.99;34.01
70437;BME280;57877;39.750;-104.894;2023-12-04T04:46:07;83446.19;;;0.23;34.92
70437;BME280;57877;39.750;-104.894;2023-12-04T04:48:32;83434.48;;;0.48;35.01
70437;BME280;57877;39.750;-104.894;2023-12-04T04:50:57;83432.51;;;0.18;35.27
70437;BME280;57877;39.750;-104.894;2023-12-04T04:53:22;83422.60;;;0.59;35.28
70437;BME280;57877;39.750;-104.894;2023-12-04T04:55:47;83431.17;;;0.83;34.91
70437;BME280;57877;39.750;-104.894;2023-12-04T04:58:12;83427.33;;;0.51;35.32
70437;BME280;57877;39.750;-104.894;2023-12-04T05:00:37;83427.72;;;0.56;35.12
70437;BME280;57877;39.750;-104.894;2023-12-04T05:03:02;83426.84;;;0.29;35.88
70437;BME280;57877;39.750;-104.894;2023-12-04T05:05:27;83421.13;;;0.56;35.73
70437;BME280;57877;39.750;-104.894;2023-12-04T05:07:53;83413.09;;;0.52;35.09
70437;BME280;57877;39.750;-104.894;2023-12-04T05:10:18;83414.10;;;0.54;35.91
70437;BME280;57877;39.750;-104.894;2023-12-04T05:12:43;83416.11;;;0.23;35.80
70437;BME280;57877;39.750;-104.894;2023-12-04T05:15:08;83411.80;;;0.65;36.15
70437;BME280;57877;39.750;-104.894;2023-12-04T05:17:33;83416.02;;;0.23;36.32
70437;BME280;57877;39.750;-104.894;2023-12-04T05:19:58;83416.82;;;1.00;35.40
70437;BME280;57877;39.750;-104.894;2023-12-04T05:22:23;83423.18;;;0.89;35.40
70437;BME280;57877;39.750;-104.894;2023-12-04T05:24:48;83421.32;;;0.87;35.43
70437;BME280;57877;39.750;-104.894;2023-12-04T05:27:13;83420.45;;;1.38;34.80
70437;BME280;57877;39.750;-104.894;2023-12-04T05:29:38;83419.01;;;1.49;34.60
70437;BME280;57877;39.750;-104.894;2023-12-04T05:32:04;83406.47;;;1.60;34.51
70437;BME280;57877;39.750;-104.894;2023-12-04T05:34:28;83413.63;;;1.41;34.47
70437;BME280;57877;39.750;-104.894;2023-12-04T05:36:53;83419.22;;;1.37;34.49
70437;BME280;57877;39.750;-104.894;2023-12-04T05:39:19;83419.54;;;1.10;35.23
70437;BME280;57877;39.750;-104.894;2023-12-04T05:41:44;83413.30;;;1.40;34.83
70437;BME280;57877;39.750;-104.894;2023-12-04T05:44:09;83415.06;;;1.57;34.47
70437;BME280;57877;39.750;-104.894;2023-12-04T05:46:34;83411.43;;;0.99;35.56
70437;BME280;57877;39.750;-104.894;2023-12-04T05:48:59;83410.09;;;1.05;35.60
70437;BME280;57877;39.750;-104.894;2023-12-04T05:51:24;83409.39;;;1.37;35.28
70437;BME280;57877;39.750;-104.894;2023-12-04T05:53:49;83413.41;;;1.51;34.84
70437;BME280;57877;39.750;-104.894;2023-12-04T05:56:14;83410.37;;;1.86;34.72
70437;BME280;57877;39.750;-104.894;2023-12-04T05:58:39;83416.13;;;1.83;34.46
70437;BME280;57877;39.750;-104.894;2023-12-04T06:01:04;83423.45;;;1.73;34.60
70437;BME280;57877;39.750;-104.894;2023-12-04T06:03:29;83416.77;;;1.70;34.38
70437;BME280;57877;39.750;-104.894;2023-12-04T06:05:54;83420.35;;;1.86;34.53
70437;BME280;57877;39.750;-104.894;2023-12-04T06:08:19;83423.04;;;1.18;35.00
70437;BME280;57877;39.750;-104.894;2023-12-04T06:10:45;83420.08;;;1.48;35.34
70437;BME280;57877;39.750;-104.894;2023-12-04T06:13:09;83424.27;;;0.61;36.58
70437;BME280;57877;39.750;-104.894;2023-12-04T06:15:34;83423.50;;;1.05;36.60
70437;BME280;57877;39.750;-104.894;2023-12-04T06:18:00;83428.35;;;1.33;36.23
70437;BME280;57877;39.750;-104.894;2023-12-04T06:20:25;83427.87;;;1.50;36.08
70437;BME280;57877;39.750;-104.894;2023-12-04T06:22:50;83426.27;;;1.64;35.98
70437;BME280;57877;39.750;-104.894;2023-12-04T06:25:16;83430.00;;;1.82;35.60
70437;BME280;57877;39.750;-104.894;2023-12-04T06:27:40;83427.87;;;1.50;35.39
70437;BME280;57877;39.750;-104.894;2023-12-04T06:30:06;83419.66;;;1.77;35.34
70437;BME280;57877;39.750;-104.894;2023-12-04T06:32:31;83412.42;;;1.37;35.40
70437;BME280;57877;39.750;-104.894;2023-12-04T06:34:56;83407.85;;;1.17;36.04
70437;BME280;57877;39.750;-104.894;2023-12-04T06:37:21;83406.01;;;1.09;36.17
70437;BME280;57877;39.750;-104.894;2023-12-04T06:39:46;83404.89;;;1.10;36.30
70437;BME280;57877;39.750;-104.894;2023-12-04T06:42:12;83400.14;;;0.30;37.36
70437;BME280;57877;39.750;-104.894;2023-12-04T06:44:36;83394.12;;;0.74;36.50
70437;BME280;57877;39.750;-104.894;2023-12-04T06:47:01;83396.09;;;1.19;35.77
70437;BME280;57877;39.750;-104.894;2023-12-04T06:49:29;83394.63;;;0.71;36.49
70437;BME280;57877;39.750;-104.894;2023-12-04T06:51:51;83396.95;;;0.69;36.53
70437;BME280;57877;39.750;-104.894;2023-12-04T06:54:16;83384.75;;;0.97;36.31
70437;BME280;57877;39.750;-104.894;2023-12-04T06:56:41;83383.98;;;0.30;37.03
70437;BME280;57877;39.750;-104.894;2023-12-04T06:59:06;83390.74;;;1.05;36.26
70437;BME280;57877;39.750;-104.894;2023-12-04T07:01:31;83398.06;;;0.66;36.54
70437;BME280;57877;39.750;-104.894;2023-12-04T07:03:56;83399.76;;;0.88;36.09
70437;BME280;57877;39.750;-104.894;2023-12-04T07:06:21;83390.86;;;0.47;37.08
70437;BME280;57877;39.750;-104.894;2023-12-04T07:08:46;83393.60;;;0.31;37.09
70437;BME280;57877;39.750;-104.894;2023-12-04T07:11:11;83389.37;;;0.87;36.42
70437;BME280;57877;39.750;-104.894;2023-12-04T07:13:37;83388.98;;;0.47;36.06
70437;BME280;57877;39.750;-104.894;2023-12-04T07:16:02;83389.62;;;0.49;36.01
70437;BME280;57877;39.750;-104.894;2023-12-04T07:18:27;83388.28;;;0.48;36.36
70437;BME280;57877;39.750;-104.894;2023-12-04T07:20:52;83392.17;;;0.36;36.47
70437;BME280;57877;39.750;-104.894;2023-12-04T07:23:17;83385.18;;;0.07;37.38
70437;BME280;57877;39.750;-104.894;2023-12-04T07:25:42;83387.08;;;0.76;36.46
70437;BME280;57877;39.750;-104.894;2023-12-04T07:28:07;83399.17;;;0.28;36.78
70437;BME280;57877;39.750;-104.894;2023-12-04T07:30:32;83393.75;;;0.34;36.03
70437;BME280;57877;39.750;-104.894;2023-12-04T07:32:57;83397.59;;;0.90;35.73
70437;BME280;57877;39.750;-104.894;2023-12-04T07:35:23;83395.44;;;0.35;36.42
70437;BME280;57877;39.750;-104.894;2023-12-04T07:37:48;83397.70;;;0.47;35.77
70437;BME280;57877;39.750;-104.894;2023-12-04T07:40:13;83405.22;;;0.80;35.89
70437;BME280;57877;39.750;-104.894;2023-12-04T07:42:38;83387.83;;;0.98;34.96
70437;BME280;57877;39.750;-104.894;2023-12-04T07:45:04;83395.22;;;0.89;34.67
70437;BME280;57877;39.750;-104.894;2023-12-04T07:47:28;83384.68;;;1.21;34.29
70437;BME280;57877;39.750;-104.894;2023-12-04T07:49:53;83379.57;;;0.68;34.96
70437;BME280;57877;39.750;-104.894;2023-12-04T07:52:18;83391.88;;;0.61;35.04
70437;BME280;57877;39.750;-104.894;2023-12-04T07:54:43;83395.85;;;0.36;35.20
70437;BME280;57877;39.750;-104.894;2023-12-04T07:57:08;83400.88;;;1.36;33.75
70437;BME280;57877;39.750;-104.894;2023-12-04T07:59:33;83389.81;;;1.70;33.51
70437;BME280;57877;39.750;-104.894;2023-12-04T08:01:58;83379.04;;;1.56;33.42
70437;BME280;57877;39.750;-104.894;2023-12-04T08:04:24;83374.37;;;1.47;33.32
70437;BME280;57877;39.750;-104.894;2023-12-04T08:06:49;83375.55;;;1.22;33.74
70437;BME280;57877;39.750;-104.894;2023-12-04T08:09:14;83380.23;;;1.39;33.64
70437;BME280;57877;39.750;-104.894;2023-12-04T08:11:39;83374.82;;;1.27;33.74
70437;BME280;57877;39.750;-104.894;2023-12-04T08:14:05;83375.86;;;0.48;34.45
70437;BME280;57877;39.750;-104.894;2023-12-04T08:16:30;83353.26;;;-0.10;35.33
70437;BME280;57877;39.750;-104.894;2023-12-04T08:18:55;83350.78;;;0.36;35.38
70437;BME280;57877;39.750;-104.894;2023-12-04T08:21:19;83364.05;;;0.64;35.02
70437;BME280;57877;39.750;-104.894;2023-12-04T08:23:45;83382.22;;;0.21;35.69
70437;BME280;57877;39.750;-104.894;2023-12-04T08:26:10;83407.10;;;0.42;35.43
70437;BME280;57877;39.750;-104.894;2023-12-04T08:28:35;83419.99;;;-0.76;36.83
70437;BME280;57877;39.750;-104.894;2023-12-04T08:31:00;83413.66;;;0.47;35.40
70437;BME280;57877;39.750;-104.894;2023-12-04T08:33:25;83424.78;;;0.70;34.69
70437;BME280;57877;39.750;-104.894;2023-12-04T08:35:50;83434.14;;;0.64;34.54
70437;BME280;57877;39.750;-104.894;2023-12-04T08:38:15;83424.56;;;1.24;33.94
70437;BME280;57877;39.750;-104.894;2023-12-04T08:40:40;83416.18;;;1.29;33.67
70437;BME280;57877;39.750;-104.894;2023-12-04T08:43:06;83418.81;;;1.39;33.54
70437;BME280;57877;39.750;-104.894;2023-12-04T08:45:31;83428.04;;;0.80;33.91
70437;BME280;57877;39.750;-104.894;2023-12-04T08:47:56;83433.35;;;1.22;33.67
70437;BME280;57877;39.750;-104.894;2023-12-04T08:50:21;83431.42;;;1.19;33.57
70437;BME280;57877;39.750;-104.894;2023-12-04T08:52:46;83439.24;;;1.05;33.88
70437;BME280;57877;39.750;-104.894;2023-12-04T08:55:11;83458.98;;;0.99;33.65
70437;BME280;57877;39.750;-104.894;2023-12-04T08:57:36;83436.40;;;0.46;34.33
70437;BME280;57877;39.750;-104.894;2023-12-04T09:00:01;83406.34;;;0.22;35.14
70437;BME280;57877;39.750;-104.894;2023-12-04T09:02:26;83417.85;;;0.49;35.34
70437;BME280;57877;39.750;-104.894;2023-12-04T09:04:51;83424.57;;;0.46;34.72
70437;BME280;57877;39.750;-104.894;2023-12-04T09:07:17;83418.51;;;0.20;34.99
70437;BME280;57877;39.750;-104.894;2023-12-04T09:09:42;83403.54;;;-0.30;35.98
70437;BME280;57877;39.750;-104.894;2023-12-04T09:12:07;83399.22;;;-0.07;35.92
70437;BME280;57877;39.750;-104.894;2023-12-04T09:14:32;83411.87;;;0.05;35.89
70437;BME280;57877;39.750;-104.894;2023-12-04T09:16:57;83421.39;;;0.45;35.39
70437;BME280;57877;39.750;-104.894;2023-12-04T09:19:22;83417.60;;;1.07;34.63
70437;BME280;57877;39.750;-104.894;2023-12-04T09:21:47;83416.40;;;0.78;34.66
70437;BME280;57877;39.750;-104.894;2023-12-04T09:24:12;83430.97;;;0.46;34.66
70437;BME280;57877;39.750;-104.894;2023-12-04T09:26:37;83451.54;;;0.80;34.58
70437;BME280;57877;39.750;-104.894;2023-12-04T09:29:03;83461.68;;;0.39;34.74
70437;BME280;57877;39.750;-104.894;2023-12-04T09:31:28;83458.72;;;0.24;34.92
70437;BME280;57877;39.750;-104.894;2023-12-04T09:33:53;83471.05;;;0.23;34.99
70437;BME280;57877;39.750;-104.894;2023-12-04T09:36:18;83477.21;;;-0.05;35.85
70437;BME280;57877;39.750;-104.894;2023-12-04T09:38:43;83464.54;;;-0.62;36.98
70437;BME280;57877;39.750;-104.894;2023-12-04T09:41:10;83464.84;;;-0.45;36.51
70437;BME280;57877;39.750;-104.894;2023-12-04T09:43:33;83460.08;;;0.47;36.00
70437;BME280;57877;39.750;-104.894;2023-12-04T09:45:58;83459.57;;;0.02;35.86
70437;BME280;57877;39.750;-104.894;2023-12-04T09:48:25;83441.51;;;0.22;35.58
70437;BME280;57877;39.750;-104.894;2023-12-04T09:50:48;83434.38;;;0.51;35.24
70437;BME280;57877;39.750;-104.894;2023-12-04T09:53:13;83430.60;;;0.66;35.24
70437;BME280;57877;39.750;-104.894;2023-12-04T09:55:39;83434.44;;;0.05;35.92
70437;BME280;57877;39.750;-104.894;2023-12-04T09:58:04;83438.53;;;-0.17;35.89
70437;BME280;57877;39.750;-104.894;2023-12-04T10:00:29;83432.69;;;-0.07;35.73
70437;BME280;57877;39.750;-104.894;2023-12-04T10:02:54;83432.29;;;0.25;35.28
70437;BME280;57877;39.750;-104.894;2023-12-04T10:05:19;83435.75;;;0.73;34.68
70437;BME280;57877;39.750;-104.894;2023-12-04T10:07:44;83432.90;;;0.56;34.92
70437;BME280;57877;39.750;-104.894;2023-12-04T10:10:10;83437.47;;;0.33;34.91
70437;BME280;57877;39.750;-104.894;2023-12-04T10:12:36;83447.98;;;0.03;35.30
70437;BME280;57877;39.750;-104.894;2023-12-04T10:15:05;83453.74;;;1.08;34.34
70437;BME280;57877;39.750;-104.894;2023-12-04T10:17:24;83447.98;;;0.42;34.54
70437;BME280;57877;39.750;-104.894;2023-12-04T10:19:57;83461.66;;;-0.25;35.79
70437;BME280;57877;39.750;-104.894;2023-12-04T10:22:15;83464.55;;;0.46;34.72
70437;BME280;57877;39.750;-104.894;2023-12-04T10:24:40;83464.11;;;1.23;34.08
70437;BME280;57877;39.750;-104.894;2023-12-04T10:27:06;83459.14;;;-0.73;36.46
70437;BME280;57877;39.750;-104.894;2023-12-04T10:29:40;83465.03;;;0.25;35.43
70437;BME280;57877;39.750;-104.894;2023-12-04T10:31:55;83469.36;;;0.22;35.03
70437;BME280;57877;39.750;-104.894;2023-12-04T10:34:20;83468.88;;;0.94;34.36
70437;BME280;57877;39.750;-104.894;2023-12-04T10:36:46;83472.42;;;0.72;34.70
70437;BME280;57877;39.750;-104.894;2023-12-04T10:39:10;83473.04;;;0.34;35.42
70437;BME280;57877;39.750;-104.894;2023-12-04T10:41:36;83476.78;;;-0.04;35.91
70437;BME280;57877;39.750;-104.894;2023-12-04T10:44:01;83476.51;;;0.51;35.20
70437;BME280;57877;39.750;-104.894;2023-12-04T10:46:26;83492.46;;;0.60;34.28
70437;BME280;57877;39.750;-104.894;2023-12-04T10:48:51;83493.30;;;0.92;33.96
70437;BME280;57877;39.750;-104.894;2023-12-04T10:51:17;83498.02;;;1.44;33.85
70437;BME280;57877;39.750;-104.894;2023-12-04T10:53:41;83503.58;;;0.40;34.40
70437;BME280;57877;39.750;-104.894;2023-12-04T10:56:08;83498.25;;;0.58;34.33
70437;BME280;57877;39.750;-104.894;2023-12-04T10:58:32;83496.19;;;1.01;33.98
70437;BME280;57877;39.750;-104.894;2023-12-04T11:00:57;83500.52;;;1.02;33.90
70437;BME280;57877;39.750;-104.894;2023-12-04T11:03:28;83493.65;;;1.03;34.04
70437;BME280;57877;39.750;-104.894;2023-12-04T11:05:51;83504.93;;;0.39;35.00
70437;BME280;57877;39.750;-104.894;2023-12-04T11:08:16;83502.90;;;0.89;34.20
70437;BME280;57877;39.750;-104.894;2023-12-04T11:10:41;83501.78;;;1.18;33.87
70437;BME280;57877;39.750;-104.894;2023-12-04T11:13:08;83509.46;;;1.26;33.46
70437;BME280;57877;39.750;-104.894;2023-12-04T11:15:29;83503.88;;;1.42;33.15
70437;BME280;57877;39.750;-104.894;2023-12-04T11:17:58;83498.55;;;0.97;33.82
70437;BME280;57877;39.750;-104.894;2023-12-04T11:20:19;83502.69;;;-0.21;35.27
70437;BME280;57877;39.750;-104.894;2023-12-04T11:22:43;83512.04;;;0.49;34.94
70437;BME280;57877;39.750;-104.894;2023-12-04T11:25:09;83518.56;;;0.81;34.20
70437;BME280;57877;39.750;-104.894;2023-12-04T11:27:33;83510.92;;;0.42;34.62
70437;BME280;57877;39.750;-104.894;2023-12-04T11:29:58;83521.62;;;0.78;34.48
70437;BME280;57877;39.750;-104.894;2023-12-04T11:32:27;83520.17;;;0.86;34.57
70437;BME280;57877;39.750;-104.894;2023-12-04T11:34:49;83513.94;;;0.05;35.52
70437;BME280;57877;39.750;-104.894;2023-12-04T11:37:13;83519.55;;;0.64;35.12
70437;BME280;57877;39.750;-104.894;2023-12-04T11:39:38;83522.44;;;0.88;34.67
70437;BME280;57877;39.750;-104.894;2023-12-04T11:42:06;83517.58;;;0.57;34.43
70437;BME280;57877;39.750;-104.894;2023-12-04T11:44:28;83524.17;;;0.46;35.02
70437;BME280;57877;39.750;-104.894;2023-12-04T11:47:02;83517.41;;;0.14;35.64
70437;BME280;57877;39.750;-104.894;2023-12-04T11:51:47;83516.36;;;0.70;34.52
70437;BME280;57877;39.750;-104.894;2023-12-04T11:54:09;83514.62;;;1.05;33.90
70437;BME280;57877;39.750;-104.894;2023-12-04T11:56:34;83510.63;;;1.24;33.67
70437;BME280;57877;39.750;-104.894;2023-12-04T11:59:04;83508.95;;;1.29;33.63
70437;BME280;57877;39.750;-104.894;2023-12-04T12:01:24;83511.32;;;1.21;33.86
70437;BME280;57877;39.750;-104.894;2023-12-04T12:03:51;83501.53;;;1.20;33.85
70437;BME280;57877;39.750;-104.894;2023-12-04T12:06:14;83511.70;;;1.08;33.87
70437;BME280;57877;39.750;-104.894;2023-12-04T12:08:39;83514.62;;;1.25;33.86
70437;BME280;57877;39.750;-104.894;2023-12-04T12:11:05;83518.89;;;0.61;34.76
70437;BME280;57877;39.750;-104.894;2023-12-04T12:13:29;83518.78;;;0.69;34.68
70437;BME280;57877;39.750;-104.894;2023-12-04T12:15:54;83520.97;;;0.83;34.49
70437;BME280;57877;39.750;-104.894;2023-12-04T12:18:21;83524.34;;;0.90;34.31
70437;BME280;57877;39.750;-104.894;2023-12-04T12:20:45;83519.38;;;0.75;34.50
70437;BME280;57877;39.750;-104.894;2023-12-04T12:23:10;83517.58;;;0.49;34.88
70437;BME280;57877;39.750;-104.894;2023-12-04T12:25:35;83511.33;;;0.51;34.92
70437;BME280;57877;39.750;-104.894;2023-12-04T12:28:03;83511.05;;;0.53;34.88
70437;BME280;57877;39.750;-104.894;2023-12-04T12:30:25;83514.81;;;0.68;34.65